Sherman Oaks, California
Current Conditions -  °F | °C
As of 6:51 PM on Thursday 27 Nov 2014 (Local Time) from KVNY Reporting Station
Clear Clear  
Wind Chill: 21°   Ceiling: Unl
Heat Index: 21°   Visibility: 10mi
Dew Point: -2°   Wind: 5mph
Humidity: 22%   Direction: 330°NNW
Pressure: 30.03"   Gusts: NA
Location:  34.15°N, 118.45°W
Report Text: KVNY 280251Z 33004KT 10SM CLR 21/M02 A3003 RMK AO2 SLP165 T02061017 53009
Loading
Personal Weather Stations






























Interactive Weather Map New forecast layout! Learn more

10-Day Weather Forecast

Advertisements
Track Severe Weather on mobile